ایروان, ارمنستان

10:58 AM AMT on مه 24, 2015 (GMT +0400)
Zvartnots | | Change Station
CLOSE
Current Station
Airport
Location: Zvartnots,
Elevation: 2838 ft
Nearby Weather Stations

Elev 2838 ft 40.15 °N, 44.40 °E | Updated 28 minutes ago

Mostly Cloudy
بیشتر ابری
66 °F
Feels Like 66 °F
N
0
باد متغير باد from شمال

امروز
High -- | Low -- °F
--% Chance of Precip.
دیروز
High -- | Low -- °F
Precip. -- در
5:39 AM 8:18 PM
Waxing Crescent, 36% visible
فشار 30.01 در
ديد 6.2 مايل، ميل (در برابر كيلومتر
ابری Few 5000 ft
ابرهای پراکنده 10000 ft
بیشتر ابری 20000 ft
قطره شبنم 52 °F
رطوبت 60%
بارش باران 0.00 در
برف عمیق Not available.
مادون قرمز 4 out of 12
Pollen Not available.
تمیزی هوا Not available.
Flu Activity Not available.
METAR UDYZ 240630Z 00000MPS 9999 FEW050 SCT100 BKN200 19/11 Q1016 R09/010070 NOSIG

More Conditions Fewer Conditions

فشار 30.01 در
ديد 6.2 مايل، ميل (در برابر كيلومتر
ابری Few 5000 ft
ابرهای پراکنده 10000 ft
بیشتر ابری 20000 ft
قطره شبنم 52 °F
رطوبت 60%
بارش باران 0.00 در
برف عمیق Not available.
مادون قرمز 4 out of 12
Pollen Not available.
تمیزی هوا Not available.
Flu Activity Not available.
METAR UDYZ 240630Z 00000MPS 9999 FEW050 SCT100 BKN200 19/11 Q1016 R09/010070 NOSIG

More Conditions Fewer Conditions

10-Day Weather Forecast

Almanac

ستاره شناسی

May. 24, 2015 Rise Set
وقت حقیقی
تاریک و روشن اجتماعی
تاریک روشن دریایی
شفق و فلق نجومی
ماه
میزان روشنایی روز
طول روز
Tomorrow will be .
, % of the Moon is Illuminated

Today's Extremes

Country Highs Country Lows

Community

WunderPhotos

Upload Photos

1,823,694 photos uploaded!

WunderBlogs® & News

Nearby

تمیزی هوا

  تمیزی هوا AQ Index آلاینده
Not available.

عمق برف

Station Depth Elevation

Earthquake Activity

شهر Distance Mag. Time & Date
Minimum magnitude displayed is 2.5.

Coastal Water Temperatures

منطقه درجه حرارت

Stations

Nearby Weather Stations

Station Location دما باد سرد قطره شبنم رطوبت باد Precip. Elev ارتقا دادن Type